createdAt,value
2019-05-29T00:00:46.281Z,21.27
2019-05-29T00:03:14.354Z,21.24
2019-05-29T00:05:39.781Z,21.27
2019-05-29T00:08:06.540Z,21.21
2019-05-29T00:10:33.232Z,21.21
2019-05-29T00:12:59.870Z,21.14
2019-05-29T00:15:26.516Z,21.13
2019-05-29T00:17:53.153Z,21.07
2019-05-29T00:20:19.797Z,21.07
2019-05-29T00:22:46.491Z,21.04
2019-05-29T00:25:13.181Z,21.07
2019-05-29T00:27:39.824Z,21.07
2019-05-29T00:30:06.950Z,21.00
2019-05-29T00:32:33.126Z,21.01
2019-05-29T00:34:59.789Z,21.04
2019-05-29T00:37:26.434Z,21.06
2019-05-29T00:39:53.084Z,21.10
2019-05-29T00:44:46.438Z,21.07
2019-05-29T00:47:13.657Z,21.31
2019-05-29T00:49:39.752Z,21.34
2019-05-29T00:52:06.388Z,21.56
2019-05-29T00:54:33.072Z,21.72
2019-05-29T00:56:59.858Z,21.79
2019-05-29T00:59:26.496Z,21.57
2019-05-29T01:01:53.240Z,21.22
2019-05-29T01:04:20.069Z,21.14
2019-05-29T01:06:46.748Z,21.06
2019-05-29T01:09:14.443Z,21.16
2019-05-29T01:11:40.233Z,20.99
2019-05-29T01:14:06.879Z,20.86
2019-05-29T01:16:33.535Z,20.83
2019-05-29T01:19:00.177Z,20.84
2019-05-29T01:21:26.877Z,20.82
2019-05-29T01:23:53.556Z,20.78
2019-05-29T01:26:20.904Z,21.12
2019-05-29T01:28:46.877Z,21.25
2019-05-29T01:31:13.651Z,21.42
2019-05-29T01:33:40.208Z,21.47
2019-05-29T01:36:06.854Z,21.57
2019-05-29T01:38:33.490Z,21.67
2019-05-29T01:41:00.151Z,21.70
2019-05-29T01:43:27.678Z,21.74
2019-05-29T01:45:53.485Z,21.84
2019-05-29T01:48:20.128Z,21.85
2019-05-29T01:50:46.770Z,21.84
2019-05-29T01:53:13.458Z,21.85
2019-05-29T01:55:40.093Z,21.90
2019-05-29T01:58:06.822Z,21.92
2019-05-29T02:00:33.501Z,21.90
2019-05-29T02:03:00.138Z,21.95
2019-05-29T02:07:53.599Z,21.97
2019-05-29T02:10:20.357Z,21.97
2019-05-29T02:12:46.889Z,21.96
2019-05-29T02:15:23.926Z,22.03
2019-05-29T02:17:40.234Z,22.01
2019-05-29T02:20:06.904Z,22.00
2019-05-29T02:22:33.553Z,22.05
2019-05-29T02:25:00.201Z,22.01
2019-05-29T02:27:27.726Z,22.01
2019-05-29T02:29:53.532Z,22.04
2019-05-29T02:32:21.372Z,22.04
2019-05-29T02:34:46.822Z,22.03
2019-05-29T02:37:13.538Z,22.05
2019-05-29T02:39:40.188Z,22.03
2019-05-29T02:42:06.819Z,22.07
2019-05-29T02:44:33.469Z,22.05
2019-05-29T02:47:00.172Z,22.05
2019-05-29T02:49:28.099Z,22.04
2019-05-29T02:51:53.463Z,22.13
2019-05-29T02:54:20.434Z,22.12
2019-05-29T02:56:46.882Z,22.05
2019-05-29T02:59:13.525Z,22.06
2019-05-29T03:01:40.170Z,22.12
2019-05-29T03:04:06.865Z,22.10
2019-05-29T03:06:33.715Z,22.15
2019-05-29T03:09:00.368Z,22.01
2019-05-29T03:11:27.233Z,22.04
2019-05-29T03:13:54.915Z,21.99
2019-05-29T03:16:20.336Z,21.84
2019-05-29T03:18:48.051Z,21.80
2019-05-29T03:21:13.795Z,21.88
2019-05-29T03:23:40.441Z,21.84
2019-05-29T03:28:35.037Z,21.95
2019-05-29T03:31:00.501Z,21.97
2019-05-29T03:33:31.041Z,22.04
2019-05-29T03:35:53.802Z,22.15
2019-05-29T03:38:20.446Z,22.17
2019-05-29T03:40:47.094Z,22.15
2019-05-29T03:43:16.914Z,22.23
2019-05-29T03:45:43.554Z,22.20
2019-05-29T03:48:10.197Z,22.20
2019-05-29T03:50:38.182Z,22.23
2019-05-29T03:53:03.509Z,22.29
2019-05-29T03:55:31.556Z,22.22
2019-05-29T03:57:56.844Z,22.30
2019-05-29T04:00:23.523Z,22.31
2019-05-29T04:02:50.217Z,22.36
2019-05-29T04:05:17.028Z,22.37
2019-05-29T04:07:43.671Z,22.47
2019-05-29T04:10:10.403Z,22.50
2019-05-29T04:12:38.097Z,22.61
2019-05-29T04:15:03.698Z,22.58
2019-05-29T04:17:31.841Z,22.35
2019-05-29T04:19:56.973Z,22.39
2019-05-29T04:22:23.620Z,22.25
2019-05-29T04:27:16.915Z,22.39
2019-05-29T04:29:43.571Z,22.50
2019-05-29T04:32:10.207Z,22.69
2019-05-29T04:34:37.897Z,22.67
2019-05-29T04:37:07.194Z,22.73
2019-05-29T04:39:30.598Z,22.65
2019-05-29T04:41:56.856Z,22.63
2019-05-29T04:44:23.508Z,22.73
2019-05-29T04:47:08.987Z,22.76
2019-05-29T04:49:20.176Z,22.87
2019-05-29T04:51:43.479Z,22.83
2019-05-29T04:54:10.105Z,22.99
2019-05-29T04:56:36.983Z,23.03
2019-05-29T05:01:30.898Z,23.17
2019-05-29T05:03:56.769Z,23.16
2019-05-29T05:06:23.493Z,23.24
2019-05-29T05:08:50.131Z,23.30
2019-05-29T05:11:16.789Z,23.33
2019-05-29T05:13:43.439Z,23.40
2019-05-29T05:16:10.094Z,23.45
2019-05-29T05:18:37.865Z,23.50
2019-05-29T05:21:03.392Z,23.52
2019-05-29T05:23:30.198Z,23.58
2019-05-29T05:25:56.680Z,23.58
2019-05-29T05:28:23.324Z,23.61
2019-05-29T05:30:49.975Z,23.70
2019-05-29T05:33:16.618Z,23.84
2019-05-29T05:35:43.276Z,23.91
2019-05-29T05:38:09.915Z,23.90
2019-05-29T05:40:39.477Z,24.04
2019-05-29T05:43:03.231Z,23.94
2019-05-29T05:45:30.858Z,23.98
2019-05-29T05:47:57.995Z,24.16
2019-05-29T05:50:23.203Z,24.05
2019-05-29T05:52:49.939Z,24.06
2019-05-29T05:55:16.678Z,24.05
2019-05-29T05:57:43.321Z,24.17
2019-05-29T06:00:09.970Z,24.12
2019-05-29T06:02:38.138Z,24.16
2019-05-29T06:05:03.266Z,24.11
2019-05-29T06:07:29.901Z,24.07
2019-05-29T06:12:23.282Z,24.13
2019-05-29T06:14:49.928Z,24.10
2019-05-29T06:17:16.570Z,24.09
2019-05-29T06:19:43.266Z,24.08
2019-05-29T06:22:09.857Z,24.09
2019-05-29T06:24:37.183Z,24.13
2019-05-29T06:27:03.172Z,24.13
2019-05-29T06:29:29.814Z,24.31
2019-05-29T06:31:56.454Z,24.35
2019-05-29T06:34:23.127Z,24.33
2019-05-29T06:36:49.754Z,24.29
2019-05-29T06:39:16.397Z,24.29
2019-05-29T06:41:44.361Z,24.29
2019-05-29T06:44:09.728Z,24.30
2019-05-29T06:46:36.387Z,24.32
2019-05-29T06:49:03.048Z,24.33
2019-05-29T06:51:29.768Z,24.35
2019-05-29T06:53:56.408Z,24.35
2019-05-29T06:56:23.040Z,24.38
2019-05-29T06:58:49.703Z,24.51
2019-05-29T07:01:16.342Z,24.43
2019-05-29T07:03:43.970Z,24.44
2019-05-29T07:06:09.905Z,24.51
2019-05-29T07:08:39.946Z,24.49
2019-05-29T07:11:03.129Z,24.47
2019-05-29T07:13:29.774Z,24.57
2019-05-29T07:15:56.431Z,24.52
2019-05-29T07:18:23.096Z,24.55
2019-05-29T07:20:49.725Z,24.51
2019-05-29T07:23:16.368Z,24.51
2019-05-29T07:25:43.062Z,24.53
2019-05-29T07:28:09.704Z,24.55
2019-05-29T07:30:37.318Z,24.57
2019-05-29T07:33:03.042Z,24.52
2019-05-29T07:35:29.670Z,24.51
2019-05-29T07:37:56.319Z,24.52
2019-05-29T07:40:22.962Z,24.60
2019-05-29T07:42:55.185Z,24.66
2019-05-29T07:45:16.254Z,24.59
2019-05-29T07:47:44.272Z,24.56
2019-05-29T07:50:09.539Z,24.57
2019-05-29T07:52:36.261Z,24.52
2019-05-29T07:55:02.882Z,24.57
2019-05-29T07:57:29.534Z,24.57
2019-05-29T07:59:57.319Z,24.46
2019-05-29T08:02:22.827Z,24.53
2019-05-29T08:04:49.876Z,24.56
2019-05-29T08:07:16.358Z,24.55
2019-05-29T08:09:43.624Z,24.53
2019-05-29T08:12:09.660Z,24.52
2019-05-29T08:14:36.307Z,24.47
2019-05-29T08:17:02.955Z,24.56
2019-05-29T08:19:29.615Z,24.56
2019-05-29T08:21:56.247Z,24.60
2019-05-29T08:24:24.837Z,24.63
2019-05-29T08:26:50.972Z,24.57
2019-05-29T08:29:16.257Z,24.48
2019-05-29T08:31:42.905Z,24.47
2019-05-29T08:34:09.558Z,24.49
2019-05-29T08:36:36.330Z,24.45
2019-05-29T08:39:02.987Z,24.45
2019-05-29T08:41:29.630Z,24.41
2019-05-29T08:43:56.280Z,24.45
2019-05-29T08:46:22.986Z,24.46
2019-05-29T08:48:49.966Z,24.42
2019-05-29T08:51:16.260Z,24.34
2019-05-29T08:53:44.138Z,24.42
2019-05-29T08:56:09.657Z,24.43
2019-05-29T08:58:37.302Z,24.50
2019-05-29T09:01:03.162Z,24.31
2019-05-29T09:03:29.800Z,24.32
2019-05-29T09:06:08.544Z,24.35
2019-05-29T09:08:23.289Z,24.32
2019-05-29T09:10:51.652Z,24.23
2019-05-29T09:15:43.265Z,24.21
2019-05-29T09:18:09.910Z,24.16
2019-05-29T09:20:57.941Z,24.17
2019-05-29T09:23:03.205Z,24.30
2019-05-29T09:25:29.841Z,24.44
2019-05-29T09:27:56.497Z,24.34
2019-05-29T09:30:23.628Z,24.26
2019-05-29T09:32:52.353Z,24.19
2019-05-29T09:35:18.238Z,24.12
2019-05-29T09:37:43.120Z,24.13
2019-05-29T09:40:09.765Z,24.07
2019-05-29T09:42:36.405Z,24.05
2019-05-29T09:45:03.061Z,24.07
2019-05-29T09:47:29.707Z,24.05
2019-05-29T09:49:56.366Z,23.95
2019-05-29T09:52:22.998Z,23.97
2019-05-29T09:54:49.658Z,23.96
2019-05-29T09:57:16.312Z,24.19
2019-05-29T09:59:42.946Z,24.12
2019-05-29T10:02:09.610Z,24.09
2019-05-29T10:04:36.271Z,23.99
2019-05-29T10:07:04.793Z,23.97
2019-05-29T10:09:29.771Z,23.91
2019-05-29T10:11:59.637Z,23.92
2019-05-29T10:14:23.158Z,23.85
2019-05-29T10:16:49.819Z,23.91
2019-05-29T10:19:16.484Z,23.84
2019-05-29T10:21:43.149Z,23.75
2019-05-29T10:24:09.768Z,23.78
2019-05-29T10:26:36.422Z,23.83
2019-05-29T10:29:08.610Z,23.91
2019-05-29T10:31:29.731Z,23.94
2019-05-29T10:33:56.373Z,23.91
2019-05-29T10:36:23.207Z,23.82
2019-05-29T10:38:50.722Z,23.83
2019-05-29T10:41:16.312Z,23.75
2019-05-29T10:46:09.612Z,23.75
2019-05-29T10:48:36.268Z,23.68
2019-05-29T10:51:03.013Z,23.69
2019-05-29T10:53:29.683Z,23.76
2019-05-29T10:55:56.322Z,23.81
2019-05-29T10:58:22.977Z,23.70
2019-05-29T11:00:51.137Z,23.72
2019-05-29T11:03:16.351Z,23.73
2019-05-29T11:05:43.197Z,23.77
2019-05-29T11:08:09.833Z,23.83
2019-05-29T11:10:36.534Z,23.93
2019-05-29T11:13:03.183Z,23.87
2019-05-29T11:15:29.819Z,23.77
2019-05-29T11:17:57.395Z,23.81
2019-05-29T11:20:23.163Z,23.76
2019-05-29T11:22:49.863Z,23.71
2019-05-29T11:25:22.516Z,23.78
2019-05-29T11:27:43.169Z,23.78
2019-05-29T11:30:09.820Z,23.78
2019-05-29T11:32:36.482Z,23.75
2019-05-29T11:35:03.202Z,23.70
2019-05-29T11:37:29.873Z,23.72
2019-05-29T11:39:56.856Z,23.87
2019-05-29T11:42:27.168Z,23.71
2019-05-29T11:44:50.873Z,23.71
2019-05-29T11:47:16.490Z,23.64
2019-05-29T11:49:43.126Z,23.70
2019-05-29T11:52:23.653Z,23.64
2019-05-29T11:54:36.441Z,23.73
2019-05-29T11:57:03.328Z,23.65
2019-05-29T11:59:29.775Z,23.67
2019-05-29T12:01:57.306Z,23.71
2019-05-29T12:04:26.565Z,23.72
2019-05-29T12:06:51.081Z,23.75
2019-05-29T12:09:31.286Z,23.72
2019-05-29T12:11:43.385Z,23.70
2019-05-29T12:14:10.028Z,23.80
2019-05-29T12:16:36.738Z,23.83
2019-05-29T12:19:03.374Z,23.77
2019-05-29T12:21:30.027Z,23.70
2019-05-29T12:23:56.673Z,23.70
2019-05-29T12:26:23.490Z,23.79
2019-05-29T12:28:49.969Z,23.98
2019-05-29T12:31:16.618Z,23.81
2019-05-29T12:33:43.254Z,23.73
2019-05-29T12:36:09.901Z,23.73
2019-05-29T12:38:36.599Z,23.74
2019-05-29T12:41:03.824Z,23.71
2019-05-29T12:43:29.898Z,23.87
2019-05-29T12:45:57.725Z,23.79
2019-05-29T12:50:49.852Z,23.82
2019-05-29T12:53:29.804Z,23.86
2019-05-29T12:55:43.145Z,23.81
2019-05-29T12:58:09.865Z,23.72
2019-05-29T13:00:36.511Z,23.69
2019-05-29T13:03:03.761Z,23.64
2019-05-29T13:05:29.811Z,23.61
2019-05-29T13:07:56.858Z,23.75
2019-05-29T13:10:30.502Z,23.64
2019-05-29T13:12:49.824Z,23.51
2019-05-29T13:15:16.490Z,23.50
2019-05-29T13:17:43.140Z,23.46
2019-05-29T13:20:21.063Z,23.40
2019-05-29T13:22:36.524Z,23.47
2019-05-29T13:25:03.494Z,23.47
2019-05-29T13:27:29.868Z,23.49
2019-05-29T13:29:59.872Z,23.65
2019-05-29T13:32:23.203Z,23.58
2019-05-29T13:37:16.510Z,23.49
2019-05-29T13:39:43.152Z,23.56
2019-05-29T13:42:12.112Z,23.59
2019-05-29T13:44:36.465Z,23.61
2019-05-29T13:47:04.049Z,23.61
2019-05-29T13:49:29.851Z,23.69
2019-05-29T13:51:57.148Z,23.58
2019-05-29T13:54:23.141Z,23.52
2019-05-29T13:56:50.134Z,23.56
2019-05-29T13:59:16.439Z,23.57
2019-05-29T14:01:47.962Z,23.55
2019-05-29T14:04:09.802Z,23.50
2019-05-29T14:06:38.646Z,23.53
2019-05-29T14:09:03.130Z,23.40
2019-05-29T14:11:29.782Z,23.46
2019-05-29T14:13:56.506Z,23.53
2019-05-29T14:16:23.083Z,23.47
2019-05-29T14:18:49.863Z,23.42
2019-05-29T14:23:43.148Z,23.57
2019-05-29T14:26:09.790Z,23.43
2019-05-29T14:28:36.455Z,23.40
2019-05-29T14:31:03.889Z,23.44
2019-05-29T14:33:29.752Z,23.36
2019-05-29T14:35:56.389Z,23.39
2019-05-29T14:38:23.074Z,23.46
2019-05-29T14:40:49.727Z,23.36
2019-05-29T14:43:16.385Z,23.34
2019-05-29T14:45:43.086Z,23.36
2019-05-29T14:48:10.189Z,23.28
2019-05-29T14:50:36.366Z,23.27
2019-05-29T14:53:03.093Z,23.30
2019-05-29T14:57:56.326Z,23.42
2019-05-29T15:00:25.767Z,23.37
2019-05-29T15:02:49.672Z,23.49
2019-05-29T15:05:16.351Z,23.46
2019-05-29T15:10:22.692Z,23.67
2019-05-29T15:12:36.345Z,23.56
2019-05-29T15:15:04.634Z,23.54
2019-05-29T15:17:29.665Z,23.59
2019-05-29T15:19:56.358Z,23.61
2019-05-29T15:22:23.003Z,23.65
2019-05-29T15:25:00.827Z,23.61
2019-05-29T15:27:16.305Z,23.62
2019-05-29T15:29:42.949Z,23.62
2019-05-29T15:32:10.356Z,23.58
2019-05-29T15:34:36.374Z,23.55
2019-05-29T15:37:03.026Z,23.60
2019-05-29T15:39:29.676Z,23.57
2019-05-29T15:41:56.314Z,23.59
2019-05-29T15:44:22.970Z,23.55
2019-05-29T15:46:49.615Z,23.50
2019-05-29T15:49:17.271Z,23.52
2019-05-29T15:51:42.902Z,23.48
2019-05-29T15:54:09.558Z,23.51
2019-05-29T15:56:36.193Z,23.48
2019-05-29T15:59:02.870Z,23.48
2019-05-29T16:01:29.489Z,23.44
2019-05-29T16:03:56.138Z,23.51
2019-05-29T16:06:22.776Z,23.48
2019-05-29T16:08:49.491Z,23.48
2019-05-29T16:11:16.825Z,23.47
2019-05-29T16:13:42.777Z,23.46
2019-05-29T16:16:09.527Z,23.49
2019-05-29T16:18:36.133Z,23.45
2019-05-29T16:21:02.767Z,23.47
2019-05-29T16:23:35.546Z,23.46
2019-05-29T16:25:56.093Z,23.48
2019-05-29T16:28:22.773Z,23.42
2019-05-29T16:30:49.385Z,23.45
2019-05-29T16:33:17.201Z,23.47
2019-05-29T16:35:42.707Z,23.37
2019-05-29T16:38:09.357Z,23.35
2019-05-29T16:40:35.999Z,23.42
2019-05-29T16:43:02.634Z,23.36
2019-05-29T16:45:29.288Z,23.32
2019-05-29T16:47:55.932Z,23.36
2019-05-29T16:50:22.873Z,23.31
2019-05-29T16:52:49.231Z,23.33
2019-05-29T16:55:17.212Z,23.28
2019-05-29T16:57:42.584Z,23.31
2019-05-29T17:00:09.233Z,23.18
2019-05-29T17:02:35.878Z,23.25
2019-05-29T17:05:02.516Z,23.31
2019-05-29T17:07:29.178Z,23.13
2019-05-29T17:09:55.819Z,23.14
2019-05-29T17:12:22.623Z,23.19
2019-05-29T17:14:49.108Z,23.04
2019-05-29T17:17:16.870Z,23.07
2019-05-29T17:19:42.484Z,23.10
2019-05-29T17:22:09.141Z,23.20
2019-05-29T17:24:35.779Z,23.32
2019-05-29T17:27:02.420Z,23.41
2019-05-29T17:29:29.064Z,23.32
2019-05-29T17:31:55.705Z,23.25
2019-05-29T17:34:23.219Z,23.17
2019-05-29T17:36:49.002Z,23.09
2019-05-29T17:39:16.899Z,22.95
2019-05-29T17:41:42.315Z,22.98
2019-05-29T17:44:08.986Z,23.10
2019-05-29T17:46:35.695Z,22.92
2019-05-29T17:49:02.347Z,22.97
2019-05-29T17:51:28.985Z,23.05
2019-05-29T17:53:55.639Z,22.88
2019-05-29T17:56:29.688Z,22.83
2019-05-29T17:58:48.980Z,22.86
2019-05-29T18:01:16.101Z,22.88
2019-05-29T18:03:42.270Z,22.75
2019-05-29T18:06:08.928Z,22.72
2019-05-29T18:08:35.570Z,22.75
2019-05-29T18:11:02.208Z,22.76
2019-05-29T18:13:28.863Z,22.69
2019-05-29T18:15:55.549Z,22.73
2019-05-29T18:18:23.452Z,22.71
2019-05-29T18:20:48.892Z,22.72
2019-05-29T18:23:15.524Z,22.62
2019-05-29T18:25:42.168Z,22.61
2019-05-29T18:28:08.806Z,22.61
2019-05-29T18:30:35.442Z,22.67
2019-05-29T18:33:02.092Z,22.56
2019-05-29T18:35:29.069Z,22.54
2019-05-29T18:37:55.451Z,22.54
2019-05-29T18:40:22.391Z,22.53
2019-05-29T18:42:48.733Z,22.54
2019-05-29T18:45:20.997Z,22.52
2019-05-29T18:47:42.102Z,22.53
2019-05-29T18:52:35.423Z,22.48
2019-05-29T18:55:02.066Z,22.49
2019-05-29T18:57:29.062Z,22.45
2019-05-29T18:59:55.438Z,22.39
2019-05-29T19:02:23.230Z,22.44
2019-05-29T19:04:48.757Z,22.47
2019-05-29T19:07:15.453Z,22.37
2019-05-29T19:09:42.101Z,22.37
2019-05-29T19:12:08.777Z,22.29
2019-05-29T19:14:35.426Z,22.43
2019-05-29T19:17:02.142Z,22.37
2019-05-29T19:19:30.183Z,22.30
2019-05-29T19:21:55.480Z,22.31
2019-05-29T19:24:22.566Z,22.31
2019-05-29T19:26:48.775Z,22.24
2019-05-29T19:29:15.497Z,22.27
2019-05-29T19:31:42.673Z,22.22
2019-05-29T19:34:08.791Z,22.24
2019-05-29T19:36:35.446Z,22.20
2019-05-29T19:39:02.133Z,22.26
2019-05-29T19:41:29.985Z,22.26
2019-05-29T19:43:55.461Z,22.21
2019-05-29T19:46:22.104Z,22.14
2019-05-29T19:48:50.701Z,22.15
2019-05-29T19:51:15.397Z,22.15
2019-05-29T19:53:42.107Z,22.11
2019-05-29T19:56:11.649Z,22.15
2019-05-29T19:58:38.297Z,22.11
2019-05-29T20:03:32.571Z,22.08
2019-05-29T20:05:58.242Z,22.04
2019-05-29T20:08:24.942Z,22.02
2019-05-29T20:10:51.582Z,22.08
2019-05-29T20:13:18.271Z,22.05
2019-05-29T20:15:44.913Z,22.00
2019-05-29T20:18:11.609Z,21.99
2019-05-29T20:20:38.725Z,22.02
2019-05-29T20:23:04.935Z,21.98
2019-05-29T20:25:32.744Z,22.01
2019-05-29T20:28:06.523Z,21.94
2019-05-29T20:30:24.901Z,21.90
2019-05-29T20:32:51.556Z,21.91
2019-05-29T20:35:18.233Z,21.96
2019-05-29T20:37:44.917Z,21.94
2019-05-29T20:40:11.610Z,21.89
2019-05-29T20:42:38.556Z,21.83
2019-05-29T20:45:04.954Z,21.86
2019-05-29T20:49:58.254Z,21.78
2019-05-29T20:52:24.894Z,21.75
2019-05-29T20:54:51.546Z,21.86
2019-05-29T20:57:18.208Z,21.79
2019-05-29T20:59:44.840Z,21.78
2019-05-29T21:02:11.525Z,21.74
2019-05-29T21:04:38.482Z,21.73
2019-05-29T21:07:04.850Z,21.64
2019-05-29T21:09:32.845Z,21.66
2019-05-29T21:11:58.167Z,21.71
2019-05-29T21:14:24.793Z,21.67
2019-05-29T21:16:51.486Z,21.66
2019-05-29T21:19:18.111Z,21.61
2019-05-29T21:21:44.754Z,21.60
2019-05-29T21:24:11.390Z,21.66
2019-05-29T21:26:38.905Z,21.68
2019-05-29T21:29:04.681Z,21.63
2019-05-29T21:31:31.328Z,21.65
2019-05-29T21:36:24.641Z,21.58
2019-05-29T21:38:51.344Z,21.61
2019-05-29T21:41:17.976Z,21.59
2019-05-29T21:43:44.826Z,21.60
2019-05-29T21:48:38.989Z,21.52
2019-05-29T21:51:04.669Z,21.53
2019-05-29T21:53:31.312Z,21.53
2019-05-29T21:55:57.948Z,21.49
2019-05-29T21:58:24.598Z,21.43
2019-05-29T22:00:51.277Z,21.44
2019-05-29T22:03:17.919Z,21.46
2019-05-29T22:05:44.786Z,21.51
2019-05-29T22:08:11.269Z,21.40
2019-05-29T22:10:37.910Z,21.43
2019-05-29T22:13:04.553Z,21.40
2019-05-29T22:15:31.203Z,21.37
2019-05-29T22:17:59.069Z,21.35
2019-05-29T22:20:24.521Z,21.35
2019-05-29T22:22:51.210Z,21.28
2019-05-29T22:25:17.841Z,21.30
2019-05-29T22:27:44.477Z,21.32
2019-05-29T22:30:11.116Z,21.31
2019-05-29T22:32:37.760Z,21.33
2019-05-29T22:35:04.396Z,21.34
2019-05-29T22:37:31.089Z,21.27
2019-05-29T22:39:57.760Z,21.21
2019-05-29T22:42:24.382Z,21.31
2019-05-29T22:44:51.599Z,21.25
2019-05-29T22:47:17.675Z,21.23
2019-05-29T22:49:44.326Z,21.21
2019-05-29T22:52:10.956Z,21.24
2019-05-29T22:54:37.608Z,21.21
2019-05-29T22:57:04.240Z,21.20
2019-05-29T22:59:32.162Z,21.15
2019-05-29T23:01:58.196Z,21.15
2019-05-29T23:04:24.190Z,21.07
2019-05-29T23:06:51.991Z,21.11
2019-05-29T23:09:17.490Z,21.12
2019-05-29T23:11:44.129Z,21.08
2019-05-29T23:14:10.792Z,21.08
2019-05-29T23:16:37.437Z,21.13
2019-05-29T23:19:04.133Z,21.12
2019-05-29T23:21:30.780Z,21.12
2019-05-29T23:23:57.542Z,21.12
2019-05-29T23:26:24.096Z,21.05
2019-05-29T23:28:50.769Z,21.06
2019-05-29T23:31:17.426Z,21.05
2019-05-29T23:33:44.071Z,21.04
2019-05-29T23:36:10.779Z,21.02
2019-05-29T23:38:37.422Z,21.04
2019-05-29T23:41:04.059Z,21.06
2019-05-29T23:43:30.711Z,21.03
2019-05-29T23:45:57.454Z,21.01
2019-05-29T23:48:24.075Z,20.94
2019-05-29T23:50:50.712Z,20.99
2019-05-29T23:53:17.391Z,20.95
2019-05-29T23:55:44.025Z,21.07
2019-05-29T23:58:10.716Z,21.00
